createdAt,value
2018-09-24T00:02:24.984Z,1.80
2018-09-24T00:04:53.101Z,1.90
2018-09-24T00:07:21.226Z,1.70
2018-09-24T00:09:49.350Z,1.70
2018-09-24T00:12:17.454Z,1.60
2018-09-24T00:14:45.577Z,1.80
2018-09-24T00:17:13.697Z,1.63
2018-09-24T00:19:41.816Z,1.60
2018-09-24T00:22:09.942Z,1.40
2018-09-24T00:24:38.072Z,1.60
2018-09-24T00:27:06.202Z,1.30
2018-09-24T00:29:34.318Z,1.30
2018-09-24T00:32:02.473Z,1.53
2018-09-24T00:34:30.601Z,1.63
2018-09-24T00:36:58.762Z,1.50
2018-09-24T00:39:26.882Z,1.70
2018-09-24T00:41:55.018Z,1.53
2018-09-24T00:44:23.129Z,2.00
2018-09-24T00:46:51.277Z,1.60
2018-09-24T00:49:19.405Z,1.67
2018-09-24T00:51:47.514Z,1.57
2018-09-24T00:54:15.632Z,1.80
2018-09-24T00:56:43.729Z,1.60
2018-09-24T00:59:11.841Z,2.10
2018-09-24T01:01:39.954Z,1.90
2018-09-24T01:04:09.076Z,1.50
2018-09-24T01:06:37.217Z,1.83
2018-09-24T01:09:07.610Z,1.97
2018-09-24T01:11:35.695Z,1.90
2018-09-24T01:14:03.813Z,2.00
2018-09-24T01:16:31.930Z,1.70
2018-09-24T01:19:00.068Z,1.93
2018-09-24T01:21:28.369Z,1.97
2018-09-24T01:23:56.465Z,1.90
2018-09-24T01:26:24.592Z,1.70
2018-09-24T01:28:52.721Z,1.83
2018-09-24T01:31:20.900Z,1.73
2018-09-24T01:33:49.018Z,1.80
2018-09-24T01:36:17.136Z,2.10
2018-09-24T01:38:45.258Z,2.00
2018-09-24T01:41:13.370Z,1.87
2018-09-24T01:43:41.658Z,1.67
2018-09-24T01:46:09.770Z,1.77
2018-09-24T01:48:37.933Z,1.87
2018-09-24T01:51:06.065Z,1.87
2018-09-24T01:53:34.181Z,1.80
2018-09-24T01:56:02.322Z,1.60
2018-09-24T01:58:32.430Z,1.80
2018-09-24T02:01:00.649Z,1.60
2018-09-24T02:03:32.301Z,1.57
2018-09-24T02:06:00.486Z,1.70
2018-09-24T02:08:29.185Z,1.70
2018-09-24T02:10:57.339Z,2.03
2018-09-24T02:13:25.429Z,1.80
2018-09-24T02:15:53.553Z,1.83
2018-09-24T02:18:21.662Z,1.70
2018-09-24T02:20:49.809Z,2.17
2018-09-24T02:23:18.488Z,1.77
2018-09-24T02:25:46.582Z,1.80
2018-09-24T02:28:14.717Z,1.70
2018-09-24T02:30:42.832Z,2.00
2018-09-24T02:33:12.422Z,1.90
2018-09-24T02:35:46.481Z,1.90
2018-09-24T02:38:14.910Z,1.80
2018-09-24T02:40:43.033Z,1.70
2018-09-24T02:43:11.148Z,2.37
2018-09-24T02:45:39.377Z,1.90
2018-09-24T02:48:07.586Z,1.70
2018-09-24T02:50:37.453Z,1.67
2018-09-24T02:53:06.454Z,1.70
2018-09-24T02:55:34.581Z,1.70
2018-09-24T02:58:02.697Z,2.00
2018-09-24T03:00:30.822Z,1.63
2018-09-24T03:02:58.941Z,2.03
2018-09-24T03:05:27.065Z,1.90
2018-09-24T03:07:55.165Z,1.80
2018-09-24T03:10:23.323Z,2.10
2018-09-24T03:12:52.474Z,1.93
2018-09-24T03:15:20.991Z,2.10
2018-09-24T03:17:49.108Z,2.03
2018-09-24T03:20:17.249Z,2.10
2018-09-24T03:22:45.400Z,1.83
2018-09-24T03:25:18.167Z,2.00
2018-09-24T03:27:46.713Z,2.10
2018-09-24T03:30:14.875Z,2.10
2018-09-24T03:32:43.027Z,2.10
2018-09-24T03:35:11.190Z,2.10
2018-09-24T03:37:39.303Z,2.30
2018-09-24T03:40:07.423Z,2.43
2018-09-24T03:42:35.529Z,2.60
2018-09-24T03:45:03.822Z,2.47
2018-09-24T03:47:31.921Z,2.23
2018-09-24T03:50:00.038Z,2.30
2018-09-24T03:52:28.175Z,2.53
2018-09-24T03:54:56.270Z,2.47
2018-09-24T03:57:24.423Z,2.30
2018-09-24T03:59:52.553Z,2.50
2018-09-24T04:02:20.674Z,2.53
2018-09-24T04:04:54.153Z,2.30
2018-09-24T04:07:27.768Z,2.40
2018-09-24T04:10:01.377Z,2.50
2018-09-24T04:12:35.138Z,2.60
2018-09-24T04:15:08.955Z,2.40
2018-09-24T04:17:42.266Z,2.70
2018-09-24T04:20:15.634Z,2.40
2018-09-24T04:22:48.979Z,3.20
2018-09-24T04:25:22.712Z,3.20
2018-09-24T04:27:56.406Z,2.73
2018-09-24T04:30:29.936Z,2.80
2018-09-24T04:33:03.318Z,2.50
2018-09-24T04:35:36.726Z,3.13
2018-09-24T04:38:10.410Z,2.97
2018-09-24T04:40:44.058Z,2.90
2018-09-24T04:43:17.726Z,2.53
2018-09-24T04:45:51.342Z,2.63
2018-09-24T04:48:24.941Z,3.23
2018-09-24T04:50:58.478Z,3.33
2018-09-24T04:53:31.948Z,3.20
2018-09-24T04:56:05.718Z,3.30
2018-09-24T04:58:39.424Z,3.00
2018-09-24T05:01:13.102Z,3.10
2018-09-24T05:03:46.761Z,3.47
2018-09-24T05:06:22.118Z,3.33
2018-09-24T05:08:55.445Z,4.03
2018-09-24T05:11:29.037Z,3.73
2018-09-24T05:14:02.709Z,3.77
2018-09-24T05:16:36.307Z,3.30
2018-09-24T05:19:09.932Z,3.77
2018-09-24T05:21:43.377Z,3.77
2018-09-24T05:24:16.952Z,3.60
2018-09-24T05:26:50.510Z,3.00
2018-09-24T05:29:24.210Z,3.20
2018-09-24T05:31:57.699Z,3.43
2018-09-24T05:34:31.423Z,3.30
2018-09-24T05:37:04.682Z,3.43
2018-09-24T05:39:38.395Z,3.30
2018-09-24T05:42:12.052Z,3.40
2018-09-24T05:44:45.630Z,3.50
2018-09-24T05:47:19.229Z,3.47
2018-09-24T05:49:52.904Z,3.37
2018-09-24T05:52:26.510Z,3.23
2018-09-24T05:54:59.830Z,3.20
2018-09-24T05:57:33.501Z,3.10
2018-09-24T06:00:06.841Z,3.20
2018-09-24T06:02:40.443Z,3.63
2018-09-24T06:05:14.089Z,3.50
2018-09-24T06:07:48.446Z,3.60
2018-09-24T06:10:21.949Z,3.63
2018-09-24T06:12:55.277Z,3.73
2018-09-24T06:15:28.636Z,3.40
2018-09-24T06:18:02.241Z,3.50
2018-09-24T06:20:35.600Z,3.30
2018-09-24T06:23:09.003Z,3.43
2018-09-24T06:25:42.684Z,3.60
2018-09-24T06:28:16.394Z,3.67
2018-09-24T06:30:50.118Z,3.50
2018-09-24T06:33:23.528Z,3.70
2018-09-24T06:35:57.109Z,3.50
2018-09-24T06:38:30.669Z,3.70
2018-09-24T06:41:04.413Z,3.27
2018-09-24T06:43:37.749Z,3.50
2018-09-24T06:46:11.473Z,3.63
2018-09-24T06:48:45.059Z,4.17
2018-09-24T06:51:18.703Z,3.23
2018-09-24T06:53:52.281Z,3.13
2018-09-24T06:56:25.784Z,4.00
2018-09-24T06:58:59.370Z,3.27
2018-09-24T07:01:33.016Z,3.17
2018-09-24T07:04:06.638Z,3.73
2018-09-24T07:06:40.311Z,3.67
2018-09-24T07:09:14.331Z,3.40
2018-09-24T07:11:47.834Z,3.03
2018-09-24T07:14:21.265Z,3.37
2018-09-24T07:16:54.941Z,3.80
2018-09-24T07:19:28.406Z,3.00
2018-09-24T07:22:02.205Z,2.80
2018-09-24T07:24:35.693Z,3.47
2018-09-24T07:27:09.399Z,3.73
2018-09-24T07:29:46.694Z,3.50
2018-09-24T07:32:20.266Z,2.90
2018-09-24T07:34:53.843Z,3.60
2018-09-24T07:37:27.836Z,3.10
2018-09-24T07:40:01.350Z,2.73
2018-09-24T07:42:34.799Z,2.93
2018-09-24T07:45:08.502Z,3.10
2018-09-24T07:47:41.924Z,2.73
2018-09-24T07:50:15.609Z,2.97
2018-09-24T07:52:49.085Z,2.67
2018-09-24T07:55:22.854Z,3.23
2018-09-24T07:57:56.525Z,2.53
2018-09-24T08:00:30.241Z,2.73
2018-09-24T08:03:03.889Z,2.30
2018-09-24T08:05:37.425Z,2.50
2018-09-24T08:08:11.122Z,2.30
2018-09-24T08:10:44.507Z,2.63
2018-09-24T08:13:18.122Z,2.50
2018-09-24T08:15:51.705Z,2.33
2018-09-24T08:18:25.347Z,2.23
2018-09-24T08:20:58.996Z,2.40
2018-09-24T08:23:32.553Z,2.60
2018-09-24T08:26:05.902Z,2.30
2018-09-24T08:28:39.590Z,2.20
2018-09-24T08:31:13.017Z,2.43
2018-09-24T08:33:46.600Z,2.27
2018-09-24T08:36:20.293Z,2.20
2018-09-24T08:38:53.880Z,2.30
2018-09-24T08:41:27.560Z,2.50
2018-09-24T08:44:01.253Z,2.30
2018-09-24T08:46:34.859Z,2.07
2018-09-24T08:49:08.337Z,2.40
2018-09-24T08:51:42.084Z,2.53
2018-09-24T08:54:15.496Z,2.27
2018-09-24T08:56:49.256Z,2.07
2018-09-24T08:59:22.897Z,1.80
2018-09-24T09:01:56.570Z,2.13
2018-09-24T09:04:30.188Z,1.60
2018-09-24T09:07:03.965Z,1.97
2018-09-24T09:09:37.333Z,2.20
2018-09-24T09:12:10.763Z,2.20
2018-09-24T09:14:44.445Z,2.13
2018-09-24T09:17:18.086Z,1.80
2018-09-24T09:19:51.603Z,2.10
2018-09-24T09:22:25.027Z,1.80
2018-09-24T09:24:58.674Z,1.70
2018-09-24T09:27:32.370Z,2.00
2018-09-24T09:30:05.986Z,2.10
2018-09-24T09:32:39.950Z,1.53
2018-09-24T09:35:13.531Z,2.00
2018-09-24T09:37:47.109Z,1.90
2018-09-24T09:40:20.694Z,1.87
2018-09-24T09:42:54.356Z,1.80
2018-09-24T09:45:27.780Z,1.97
2018-09-24T09:48:01.445Z,1.87
2018-09-24T09:50:35.175Z,2.00
2018-09-24T09:53:08.862Z,1.93
2018-09-24T09:55:42.173Z,1.87
2018-09-24T09:58:15.663Z,1.77
2018-09-24T10:00:49.336Z,1.80
2018-09-24T10:03:22.675Z,1.50
2018-09-24T10:05:56.429Z,1.43
2018-09-24T10:08:29.973Z,1.90
2018-09-24T10:11:03.805Z,1.30
2018-09-24T10:13:37.190Z,1.70
2018-09-24T10:16:10.782Z,2.00
2018-09-24T10:18:44.138Z,1.80
2018-09-24T10:21:17.589Z,1.40
2018-09-24T10:23:50.968Z,1.60
2018-09-24T10:26:24.433Z,1.60
2018-09-24T10:28:58.025Z,1.97
2018-09-24T10:31:31.642Z,1.67
2018-09-24T10:34:05.098Z,1.50
2018-09-24T10:36:38.530Z,1.70
2018-09-24T10:39:14.109Z,1.70
2018-09-24T10:41:48.134Z,1.40
2018-09-24T10:44:21.786Z,1.50
2018-09-24T10:46:55.287Z,1.50
2018-09-24T10:49:28.895Z,1.70
2018-09-24T10:52:03.274Z,1.37
2018-09-24T10:54:36.775Z,1.60
2018-09-24T10:57:10.393Z,1.30
2018-09-24T10:59:44.033Z,1.50
2018-09-24T11:02:17.629Z,1.60
2018-09-24T11:04:51.144Z,1.60
2018-09-24T11:07:24.563Z,1.33
2018-09-24T11:09:58.101Z,1.50
2018-09-24T11:12:31.416Z,1.30
2018-09-24T11:15:05.045Z,1.20
2018-09-24T11:17:38.762Z,1.50
2018-09-24T11:20:12.194Z,1.50
2018-09-24T11:22:45.852Z,1.30
2018-09-24T11:25:19.545Z,1.13
2018-09-24T11:27:53.065Z,1.50
2018-09-24T11:30:26.605Z,1.30
2018-09-24T11:33:00.146Z,1.20
2018-09-24T11:35:33.583Z,1.33
2018-09-24T11:38:07.236Z,1.40
2018-09-24T11:40:40.832Z,1.73
2018-09-24T11:43:14.730Z,1.30
2018-09-24T11:45:48.318Z,1.50
2018-09-24T11:48:22.178Z,1.50
2018-09-24T11:50:55.741Z,1.30
2018-09-24T11:53:29.400Z,1.40
2018-09-24T11:56:03.050Z,1.33
2018-09-24T11:58:37.018Z,1.20
2018-09-24T12:01:10.529Z,1.50
2018-09-24T12:03:43.943Z,1.47
2018-09-24T12:06:17.462Z,1.50
2018-09-24T12:08:50.978Z,1.20
2018-09-24T12:11:24.313Z,1.43
2018-09-24T12:13:58.093Z,1.40
2018-09-24T12:16:31.705Z,1.10
2018-09-24T12:19:05.282Z,1.43
2018-09-24T12:21:38.709Z,1.27
2018-09-24T12:24:12.353Z,1.10
2018-09-24T12:26:45.793Z,1.10
2018-09-24T12:29:19.198Z,1.40
2018-09-24T12:31:52.811Z,1.47
2018-09-24T12:34:26.456Z,1.37
2018-09-24T12:37:00.069Z,1.20
2018-09-24T12:39:33.793Z,1.87
2018-09-24T12:42:07.373Z,1.00
2018-09-24T12:44:41.014Z,1.27
2018-09-24T12:47:14.619Z,1.53
2018-09-24T12:49:48.151Z,1.17
2018-09-24T12:52:21.722Z,1.20
2018-09-24T12:54:55.225Z,1.40
2018-09-24T12:57:28.819Z,1.30
2018-09-24T13:00:02.435Z,1.20
2018-09-24T13:02:36.043Z,1.30
2018-09-24T13:05:09.629Z,1.10
2018-09-24T13:07:42.981Z,1.50
2018-09-24T13:10:16.392Z,1.30
2018-09-24T13:12:49.968Z,1.27
2018-09-24T13:15:23.653Z,1.57
2018-09-24T13:17:57.271Z,1.50
2018-09-24T13:20:30.855Z,1.17
2018-09-24T13:23:04.254Z,1.30
2018-09-24T13:25:37.665Z,1.20
2018-09-24T13:28:11.178Z,1.40
2018-09-24T13:30:44.657Z,1.27
2018-09-24T13:33:18.337Z,1.30
2018-09-24T13:35:52.109Z,1.40
2018-09-24T13:38:25.722Z,1.10
2018-09-24T13:40:59.324Z,1.50
2018-09-24T13:43:32.986Z,1.40
2018-09-24T13:46:06.589Z,1.27
2018-09-24T13:48:39.993Z,1.43
2018-09-24T13:51:13.513Z,1.23
2018-09-24T13:53:47.240Z,1.20
2018-09-24T13:56:20.710Z,1.47
2018-09-24T13:58:54.207Z,1.20
2018-09-24T14:01:27.862Z,1.40
2018-09-24T14:04:01.819Z,0.93
2018-09-24T14:06:35.395Z,1.40
2018-09-24T14:09:09.811Z,1.40
2018-09-24T14:11:43.463Z,1.40
2018-09-24T14:14:16.985Z,1.30
2018-09-24T14:16:50.337Z,1.50
2018-09-24T14:19:23.673Z,1.40
2018-09-24T14:21:57.113Z,1.40
2018-09-24T14:24:30.821Z,1.40
2018-09-24T14:27:04.438Z,1.27
2018-09-24T14:29:38.085Z,1.43
2018-09-24T14:32:11.736Z,1.50
2018-09-24T14:34:45.417Z,1.40
2018-09-24T14:37:19.090Z,1.43
2018-09-24T14:39:52.790Z,1.50
2018-09-24T14:42:26.414Z,1.37
2018-09-24T14:45:00.143Z,1.20
2018-09-24T14:47:33.786Z,1.20
2018-09-24T14:50:07.291Z,1.60
2018-09-24T14:52:40.957Z,1.30
2018-09-24T14:55:14.592Z,1.70
2018-09-24T14:57:48.311Z,1.50
2018-09-24T15:00:21.980Z,1.33
2018-09-24T15:02:55.403Z,1.60
2018-09-24T15:05:29.025Z,1.33
2018-09-24T15:08:02.644Z,1.17
2018-09-24T15:10:36.314Z,1.77
2018-09-24T15:13:09.957Z,4.77
2018-09-24T15:15:43.373Z,4.83
2018-09-24T15:18:17.010Z,2.17
2018-09-24T15:20:50.445Z,1.60
2018-09-24T15:23:24.012Z,1.47
2018-09-24T15:25:57.701Z,1.40
2018-09-24T15:28:31.287Z,1.60
2018-09-24T15:31:04.717Z,1.73
2018-09-24T15:33:38.409Z,1.33
2018-09-24T15:36:11.737Z,1.30
2018-09-24T15:38:45.522Z,1.53
2018-09-24T15:41:19.046Z,1.13
2018-09-24T15:43:52.882Z,1.47
2018-09-24T15:46:26.397Z,1.50
2018-09-24T15:49:00.650Z,1.20
2018-09-24T15:51:34.234Z,1.27
2018-09-24T15:54:08.232Z,1.47
2018-09-24T15:56:41.726Z,1.40
2018-09-24T15:59:15.460Z,1.10
2018-09-24T16:01:49.241Z,1.57
2018-09-24T16:04:22.750Z,1.27
2018-09-24T16:06:56.333Z,1.27
2018-09-24T16:09:29.956Z,1.20
2018-09-24T16:12:03.569Z,1.10
2018-09-24T16:14:37.366Z,1.20
2018-09-24T16:17:11.092Z,1.10
2018-09-24T16:19:44.730Z,1.23
2018-09-24T16:22:18.270Z,1.80
2018-09-24T16:24:51.945Z,2.30
2018-09-24T16:27:25.681Z,2.17
2018-09-24T16:29:59.088Z,2.90
2018-09-24T16:32:32.390Z,2.70
2018-09-24T16:35:06.042Z,2.80
2018-09-24T16:37:39.675Z,1.90
2018-09-24T16:40:13.261Z,2.23
2018-09-24T16:42:46.940Z,1.70
2018-09-24T16:45:20.582Z,1.50
2018-09-24T16:47:54.177Z,2.30
2018-09-24T16:50:27.548Z,1.77
2018-09-24T16:53:01.194Z,1.90
2018-09-24T16:55:34.841Z,1.77
2018-09-24T16:58:08.562Z,1.40
2018-09-24T17:00:42.118Z,1.50
2018-09-24T17:03:15.862Z,1.37
2018-09-24T17:05:49.473Z,1.83
2018-09-24T17:08:23.005Z,3.50
2018-09-24T17:10:56.986Z,4.30
2018-09-24T17:13:30.682Z,4.23
2018-09-24T17:16:04.518Z,4.10
2018-09-24T17:18:37.937Z,4.30
2018-09-24T17:21:11.953Z,9.87
2018-09-24T17:23:45.392Z,12.23
2018-09-24T17:26:21.034Z,22.50
2018-09-24T17:28:54.669Z,33.47
2018-09-24T17:31:28.285Z,28.00
2018-09-24T17:34:01.869Z,19.87
2018-09-24T17:36:35.494Z,25.00
2018-09-24T17:39:10.277Z,25.63
2018-09-24T17:41:43.873Z,14.73
2018-09-24T17:44:17.579Z,8.33
2018-09-24T17:46:51.238Z,10.93
2018-09-24T17:49:24.861Z,5.63
2018-09-24T17:51:59.989Z,4.23
2018-09-24T17:54:33.645Z,2.93
2018-09-24T17:57:07.335Z,2.40
2018-09-24T17:59:40.942Z,2.33
2018-09-24T18:02:14.696Z,3.17
2018-09-24T18:04:48.111Z,3.10
2018-09-24T18:07:21.703Z,2.57
2018-09-24T18:09:55.146Z,3.00
2018-09-24T18:12:28.879Z,3.33
2018-09-24T18:15:02.259Z,5.13
2018-09-24T18:17:35.886Z,5.67
2018-09-24T18:20:09.190Z,4.97
2018-09-24T18:22:42.513Z,4.47
2018-09-24T18:25:15.865Z,4.53
2018-09-24T18:27:49.498Z,5.20
2018-09-24T18:30:23.101Z,6.53
2018-09-24T18:32:56.702Z,6.53
2018-09-24T18:35:30.385Z,5.00
2018-09-24T18:38:03.877Z,3.70
2018-09-24T18:40:37.558Z,4.10
2018-09-24T18:43:11.215Z,4.10
2018-09-24T18:45:44.845Z,4.60
2018-09-24T18:48:18.424Z,5.67
2018-09-24T18:50:51.997Z,5.30
2018-09-24T18:53:25.570Z,5.10
2018-09-24T18:55:59.238Z,4.43
2018-09-24T18:58:33.020Z,4.77
2018-09-24T19:01:06.751Z,6.00
2018-09-24T19:03:40.312Z,5.37
2018-09-24T19:06:13.965Z,4.60
2018-09-24T19:08:47.572Z,3.70
2018-09-24T19:11:27.786Z,2.33
2018-09-24T19:13:54.759Z,2.03
2018-09-24T19:16:28.250Z,3.37
2018-09-24T19:19:01.733Z,4.37
2018-09-24T19:21:35.180Z,3.73
2018-09-24T19:24:08.769Z,2.80
2018-09-24T19:26:42.357Z,3.47
2018-09-24T19:29:15.949Z,2.97
2018-09-24T19:31:49.591Z,2.80
2018-09-24T19:34:23.253Z,2.40
2018-09-24T19:36:56.943Z,2.23
2018-09-24T19:39:30.301Z,2.40
2018-09-24T19:42:03.945Z,2.43
2018-09-24T19:44:37.532Z,2.50
2018-09-24T19:47:11.421Z,2.87
2018-09-24T19:49:45.139Z,3.30
2018-09-24T19:52:18.552Z,3.30
2018-09-24T19:54:52.202Z,2.83
2018-09-24T19:57:25.665Z,2.70
2018-09-24T19:59:59.110Z,2.53
2018-09-24T20:02:32.831Z,2.70
2018-09-24T20:05:06.194Z,2.50
2018-09-24T20:07:39.638Z,2.40
2018-09-24T20:10:13.201Z,2.43
2018-09-24T20:12:46.895Z,2.20
2018-09-24T20:15:20.542Z,2.23
2018-09-24T20:17:54.329Z,1.97
2018-09-24T20:20:27.716Z,2.20
2018-09-24T20:23:01.397Z,1.77
2018-09-24T20:25:35.013Z,1.87
2018-09-24T20:28:08.594Z,2.30
2018-09-24T20:30:42.221Z,2.77
2018-09-24T20:33:15.826Z,3.30
2018-09-24T20:35:49.396Z,2.50
2018-09-24T20:38:23.078Z,2.17
2018-09-24T20:40:56.658Z,2.10
2018-09-24T20:43:30.117Z,2.10
2018-09-24T20:46:03.714Z,2.07
2018-09-24T20:48:37.307Z,2.40
2018-09-24T20:51:11.016Z,2.40
2018-09-24T20:53:44.667Z,2.37
2018-09-24T20:56:18.221Z,2.10
2018-09-24T20:58:51.921Z,2.50
2018-09-24T21:01:25.506Z,2.37
2018-09-24T21:03:59.081Z,2.47
2018-09-24T21:06:32.691Z,1.80
2018-09-24T21:09:06.720Z,2.30
2018-09-24T21:11:40.247Z,2.23
2018-09-24T21:14:13.611Z,2.40
2018-09-24T21:16:47.198Z,2.40
2018-09-24T21:19:20.801Z,2.60
2018-09-24T21:21:54.444Z,3.20
2018-09-24T21:24:27.853Z,3.60
2018-09-24T21:27:01.515Z,3.30
2018-09-24T21:29:35.240Z,3.17
2018-09-24T21:32:08.940Z,2.67
2018-09-24T21:34:42.376Z,2.73
2018-09-24T21:37:16.006Z,2.30
2018-09-24T21:39:49.671Z,2.50
2018-09-24T21:42:23.045Z,2.60
2018-09-24T21:44:56.430Z,2.00
2018-09-24T21:47:29.753Z,2.30
2018-09-24T21:50:03.696Z,2.60
2018-09-24T21:52:37.320Z,3.00
2018-09-24T21:55:10.896Z,3.20
2018-09-24T21:57:44.452Z,3.60
2018-09-24T22:00:18.165Z,2.90
2018-09-24T22:02:51.890Z,2.87
2018-09-24T22:05:25.529Z,3.10
2018-09-24T22:07:59.558Z,3.57
2018-09-24T22:10:33.193Z,3.07
2018-09-24T22:13:06.806Z,3.57
2018-09-24T22:15:40.413Z,3.10
2018-09-24T22:18:13.809Z,2.73
2018-09-24T22:20:47.332Z,2.63
2018-09-24T22:23:20.738Z,2.40
2018-09-24T22:25:54.135Z,2.57
2018-09-24T22:28:27.807Z,2.63
2018-09-24T22:31:01.142Z,2.73
2018-09-24T22:33:34.816Z,2.90
2018-09-24T22:36:08.312Z,3.33
2018-09-24T22:38:41.683Z,2.53
2018-09-24T22:41:15.305Z,3.00
2018-09-24T22:43:48.762Z,2.90
2018-09-24T22:46:22.384Z,3.10
2018-09-24T22:48:56.127Z,3.30
2018-09-24T22:51:29.753Z,2.90
2018-09-24T22:54:03.457Z,3.30
2018-09-24T22:56:37.147Z,2.87
2018-09-24T22:59:10.536Z,3.13
2018-09-24T23:01:43.862Z,3.03
2018-09-24T23:04:17.424Z,2.90
2018-09-24T23:06:51.042Z,2.43
2018-09-24T23:09:24.523Z,2.67
2018-09-24T23:11:58.103Z,2.83
2018-09-24T23:14:31.638Z,2.63
2018-09-24T23:17:05.314Z,2.60
2018-09-24T23:19:38.933Z,2.70
2018-09-24T23:22:12.605Z,2.40
2018-09-24T23:24:46.242Z,2.90
2018-09-24T23:27:19.874Z,2.57
2018-09-24T23:29:53.337Z,2.57
2018-09-24T23:32:27.973Z,2.60
2018-09-24T23:35:01.593Z,2.80
2018-09-24T23:37:35.137Z,2.43
2018-09-24T23:40:15.573Z,2.93
2018-09-24T23:42:49.233Z,3.07
2018-09-24T23:45:22.698Z,2.50
2018-09-24T23:47:56.330Z,2.70
2018-09-24T23:50:29.953Z,2.63
2018-09-24T23:53:03.713Z,2.87
2018-09-24T23:55:37.066Z,2.87
2018-09-24T23:58:10.652Z,2.50
